sensor_id;sensor_type;location;lat;lon;timestamp;pressure;altitude;pressure_sealevel;temperature
10598;BMP180;5346;48.766;8.674;2023-04-03T00:00:24;94575.00;;;0.20
10598;BMP180;5346;48.766;8.674;2023-04-03T00:02:59;94579.00;;;0.20
10598;BMP180;5346;48.766;8.674;2023-04-03T00:05:39;94577.00;;;0.20
10598;BMP180;5346;48.766;8.674;2023-04-03T00:08:14;94575.00;;;0.20
10598;BMP180;5346;48.766;8.674;2023-04-03T00:10:42;94577.00;;;0.20
10598;BMP180;5346;48.766;8.674;2023-04-03T00:13:19;94571.00;;;0.20
10598;BMP180;5346;48.766;8.674;2023-04-03T00:15:46;94580.00;;;0.20
10598;BMP180;5346;48.766;8.674;2023-04-03T00:18:22;94586.00;;;0.20
10598;BMP180;5346;48.766;8.674;2023-04-03T00:20:50;94588.00;;;0.30
10598;BMP180;5346;48.766;8.674;2023-04-03T00:23:24;94579.00;;;0.20
10598;BMP180;5346;48.766;8.674;2023-04-03T00:25:58;94580.00;;;0.30
10598;BMP180;5346;48.766;8.674;2023-04-03T00:28:25;94575.00;;;0.20
10598;BMP180;5346;48.766;8.674;2023-04-03T00:31:00;94579.00;;;0.20
10598;BMP180;5346;48.766;8.674;2023-04-03T00:33:27;94580.00;;;0.20
10598;BMP180;5346;48.766;8.674;2023-04-03T00:36:10;94584.00;;;0.20
10598;BMP180;5346;48.766;8.674;2023-04-03T00:38:44;94576.00;;;0.10
10598;BMP180;5346;48.766;8.674;2023-04-03T00:41:18;94577.00;;;0.20
10598;BMP180;5346;48.766;8.674;2023-04-03T00:43:46;94583.00;;;0.20
10598;BMP180;5346;48.766;8.674;2023-04-03T00:46:21;94577.00;;;0.20
10598;BMP180;5346;48.766;8.674;2023-04-03T00:48:49;94576.00;;;0.10
10598;BMP180;5346;48.766;8.674;2023-04-03T00:51:25;94570.00;;;0.20
10598;BMP180;5346;48.766;8.674;2023-04-03T00:53:57;94567.00;;;0.10
10598;BMP180;5346;48.766;8.674;2023-04-03T00:56:33;94569.00;;;0.10
10598;BMP180;5346;48.766;8.674;2023-04-03T00:59:12;94567.00;;;0.10
10598;BMP180;5346;48.766;8.674;2023-04-03T01:01:51;94572.00;;;0.10
10598;BMP180;5346;48.766;8.674;2023-04-03T01:04:31;94570.00;;;0.30
10598;BMP180;5346;48.766;8.674;2023-04-03T01:07:16;94575.00;;;0.20
10598;BMP180;5346;48.766;8.674;2023-04-03T01:09:58;94563.00;;;0.00
10598;BMP180;5346;48.766;8.674;2023-04-03T01:12:29;94568.00;;;0.00
10598;BMP180;5346;48.766;8.674;2023-04-03T01:15:15;94566.00;;;-0.10
10598;BMP180;5346;48.766;8.674;2023-04-03T01:17:48;94570.00;;;0.00
10598;BMP180;5346;48.766;8.674;2023-04-03T01:25:53;94572.00;;;-0.10
10598;BMP180;5346;48.766;8.674;2023-04-03T01:28:28;94570.00;;;0.00
10598;BMP180;5346;48.766;8.674;2023-04-03T01:31:27;94575.00;;;0.00
10598;BMP180;5346;48.766;8.674;2023-04-03T01:34:05;94576.00;;;-0.20
10598;BMP180;5346;48.766;8.674;2023-04-03T01:36:33;94568.00;;;-0.20
10598;BMP180;5346;48.766;8.674;2023-04-03T01:39:07;94569.00;;;-0.20
10598;BMP180;5346;48.766;8.674;2023-04-03T01:41:41;94567.00;;;-0.30
10598;BMP180;5346;48.766;8.674;2023-04-03T01:44:15;94573.00;;;-0.30
10598;BMP180;5346;48.766;8.674;2023-04-03T01:46:44;94569.00;;;-0.30
10598;BMP180;5346;48.766;8.674;2023-04-03T01:49:19;94570.00;;;-0.30
10598;BMP180;5346;48.766;8.674;2023-04-03T01:51:47;94574.00;;;-0.30
10598;BMP180;5346;48.766;8.674;2023-04-03T01:54:21;94577.00;;;-0.30
10598;BMP180;5346;48.766;8.674;2023-04-03T01:56:55;94575.00;;;-0.30
10598;BMP180;5346;48.766;8.674;2023-04-03T01:59:23;94582.00;;;-0.40
10598;BMP180;5346;48.766;8.674;2023-04-03T02:01:57;94578.00;;;-0.30
10598;BMP180;5346;48.766;8.674;2023-04-03T02:04:25;94583.00;;;-0.30
10598;BMP180;5346;48.766;8.674;2023-04-03T02:07:06;94580.00;;;-0.30
10598;BMP180;5346;48.766;8.674;2023-04-03T02:09:41;94577.00;;;-0.40
10598;BMP180;5346;48.766;8.674;2023-04-03T02:12:08;94570.00;;;-0.40
10598;BMP180;5346;48.766;8.674;2023-04-03T02:14:42;94576.00;;;-0.40
10598;BMP180;5346;48.766;8.674;2023-04-03T02:17:16;94583.00;;;-0.40
10598;BMP180;5346;48.766;8.674;2023-04-03T02:19:44;94576.00;;;-0.40
10598;BMP180;5346;48.766;8.674;2023-04-03T02:22:18;94577.00;;;-0.30
10598;BMP180;5346;48.766;8.674;2023-04-03T02:24:53;94583.00;;;-0.40
10598;BMP180;5346;48.766;8.674;2023-04-03T02:27:21;94579.00;;;-0.40
10598;BMP180;5346;48.766;8.674;2023-04-03T02:29:55;94582.00;;;-0.40
10598;BMP180;5346;48.766;8.674;2023-04-03T02:32:24;94570.00;;;-0.40
10598;BMP180;5346;48.766;8.674;2023-04-03T02:34:59;94582.00;;;-0.40
10598;BMP180;5346;48.766;8.674;2023-04-03T02:37:33;94576.00;;;-0.40
10598;BMP180;5346;48.766;8.674;2023-04-03T02:40:07;94585.00;;;-0.50
10598;BMP180;5346;48.766;8.674;2023-04-03T02:42:35;94585.00;;;-0.50
10598;BMP180;5346;48.766;8.674;2023-04-03T02:45:09;94578.00;;;-0.50
10598;BMP180;5346;48.766;8.674;2023-04-03T02:47:39;94574.00;;;-0.50
10598;BMP180;5346;48.766;8.674;2023-04-03T02:50:14;94573.00;;;-0.60
10598;BMP180;5346;48.766;8.674;2023-04-03T02:52:42;94583.00;;;-0.60
10598;BMP180;5346;48.766;8.674;2023-04-03T02:55:23;94584.00;;;-0.60
10598;BMP180;5346;48.766;8.674;2023-04-03T02:57:50;94568.00;;;-0.60
10598;BMP180;5346;48.766;8.674;2023-04-03T03:00:24;94577.00;;;-0.50
10598;BMP180;5346;48.766;8.674;2023-04-03T03:02:52;94575.00;;;-0.60
10598;BMP180;5346;48.766;8.674;2023-04-03T03:05:33;94565.00;;;-0.70
10598;BMP180;5346;48.766;8.674;2023-04-03T03:08:07;94566.00;;;-0.70
10598;BMP180;5346;48.766;8.674;2023-04-03T03:10:41;94567.00;;;-0.80
10598;BMP180;5346;48.766;8.674;2023-04-03T03:13:15;94563.00;;;-0.80
10598;BMP180;5346;48.766;8.674;2023-04-03T03:15:49;94569.00;;;-0.80
10598;BMP180;5346;48.766;8.674;2023-04-03T03:18:17;94568.00;;;-0.80
10598;BMP180;5346;48.766;8.674;2023-04-03T03:21:01;94575.00;;;-0.90
10598;BMP180;5346;48.766;8.674;2023-04-03T03:23:35;94565.00;;;-0.80
10598;BMP180;5346;48.766;8.674;2023-04-03T03:26:10;94562.00;;;-0.90
10598;BMP180;5346;48.766;8.674;2023-04-03T03:28:45;94566.00;;;-1.00
10598;BMP180;5346;48.766;8.674;2023-04-03T03:31:13;94564.00;;;-0.90
10598;BMP180;5346;48.766;8.674;2023-04-03T03:33:49;94566.00;;;-0.90
10598;BMP180;5346;48.766;8.674;2023-04-03T03:36:16;94551.00;;;-0.90
10598;BMP180;5346;48.766;8.674;2023-04-03T03:38:44;94559.00;;;-0.90
10598;BMP180;5346;48.766;8.674;2023-04-03T03:41:21;94554.00;;;-0.90
10598;BMP180;5346;48.766;8.674;2023-04-03T03:43:49;94561.00;;;-0.90
10598;BMP180;5346;48.766;8.674;2023-04-03T03:46:23;94558.00;;;-0.80
10598;BMP180;5346;48.766;8.674;2023-04-03T03:48:51;94563.00;;;-0.90
10598;BMP180;5346;48.766;8.674;2023-04-03T03:51:25;94556.00;;;-0.80
10598;BMP180;5346;48.766;8.674;2023-04-03T03:53:58;94562.00;;;-0.90
10598;BMP180;5346;48.766;8.674;2023-04-03T03:56:26;94559.00;;;-0.70
10598;BMP180;5346;48.766;8.674;2023-04-03T03:59:03;94556.00;;;-0.80
10598;BMP180;5346;48.766;8.674;2023-04-03T04:01:30;94556.00;;;-0.70
10598;BMP180;5346;48.766;8.674;2023-04-03T04:04:06;94563.00;;;-0.70
10598;BMP180;5346;48.766;8.674;2023-04-03T04:06:46;94569.00;;;-0.60
10598;BMP180;5346;48.766;8.674;2023-04-03T04:09:20;94572.00;;;-0.70
10598;BMP180;5346;48.766;8.674;2023-04-03T04:11:55;94563.00;;;-0.60
10598;BMP180;5346;48.766;8.674;2023-04-03T04:14:23;94569.00;;;-0.60
10598;BMP180;5346;48.766;8.674;2023-04-03T04:16:50;94571.00;;;-0.60
10598;BMP180;5346;48.766;8.674;2023-04-03T04:19:24;94575.00;;;-0.50
10598;BMP180;5346;48.766;8.674;2023-04-03T04:21:52;94565.00;;;-0.50
10598;BMP180;5346;48.766;8.674;2023-04-03T04:24:26;94569.00;;;-0.60
10598;BMP180;5346;48.766;8.674;2023-04-03T04:26:54;94572.00;;;-0.60
10598;BMP180;5346;48.766;8.674;2023-04-03T04:29:29;94573.00;;;-0.50
10598;BMP180;5346;48.766;8.674;2023-04-03T04:32:03;94569.00;;;-0.60
10598;BMP180;5346;48.766;8.674;2023-04-03T04:34:37;94565.00;;;-0.50
10598;BMP180;5346;48.766;8.674;2023-04-03T04:37:05;94571.00;;;-0.50
10598;BMP180;5346;48.766;8.674;2023-04-03T04:39:32;94572.00;;;-0.50
10598;BMP180;5346;48.766;8.674;2023-04-03T04:42:06;94572.00;;;-0.60
10598;BMP180;5346;48.766;8.674;2023-04-03T04:44:49;94572.00;;;-0.50
10598;BMP180;5346;48.766;8.674;2023-04-03T04:47:17;94573.00;;;-0.50
10598;BMP180;5346;48.766;8.674;2023-04-03T04:49:51;94567.00;;;-0.50
10598;BMP180;5346;48.766;8.674;2023-04-03T04:52:19;94575.00;;;-0.50
10598;BMP180;5346;48.766;8.674;2023-04-03T04:54:47;94576.00;;;-0.50
10598;BMP180;5346;48.766;8.674;2023-04-03T04:57:20;94573.00;;;-0.40
10598;BMP180;5346;48.766;8.674;2023-04-03T04:59:54;94573.00;;;-0.50
10598;BMP180;5346;48.766;8.674;2023-04-03T05:02:28;94586.00;;;-0.50
10598;BMP180;5346;48.766;8.674;2023-04-03T05:04:56;94577.00;;;-0.50
10598;BMP180;5346;48.766;8.674;2023-04-03T05:07:44;94580.00;;;-0.40
10598;BMP180;5346;48.766;8.674;2023-04-03T05:10:18;94578.00;;;-0.40
10598;BMP180;5346;48.766;8.674;2023-04-03T05:12:53;94582.00;;;-0.50
10598;BMP180;5346;48.766;8.674;2023-04-03T05:15:27;94589.00;;;-0.60
10598;BMP180;5346;48.766;8.674;2023-04-03T05:18:02;94589.00;;;-0.40
10598;BMP180;5346;48.766;8.674;2023-04-03T05:20:30;94591.00;;;-0.40
10598;BMP180;5346;48.766;8.674;2023-04-03T05:23:05;94592.00;;;-0.40
10598;BMP180;5346;48.766;8.674;2023-04-03T05:25:34;94606.00;;;-0.30
10598;BMP180;5346;48.766;8.674;2023-04-03T05:28:10;94596.00;;;-0.30
10598;BMP180;5346;48.766;8.674;2023-04-03T05:30:38;94604.00;;;-0.30
10598;BMP180;5346;48.766;8.674;2023-04-03T05:33:12;94594.00;;;-0.20
10598;BMP180;5346;48.766;8.674;2023-04-03T05:35:49;94606.00;;;-0.20
10598;BMP180;5346;48.766;8.674;2023-04-03T05:38:17;94592.00;;;-0.20
10598;BMP180;5346;48.766;8.674;2023-04-03T05:40:52;94607.00;;;-0.20
10598;BMP180;5346;48.766;8.674;2023-04-03T05:43:19;94600.00;;;-0.10
10598;BMP180;5346;48.766;8.674;2023-04-03T05:45:54;94592.00;;;-0.10
10598;BMP180;5346;48.766;8.674;2023-04-03T05:48:28;94595.00;;;-0.20
10598;BMP180;5346;48.766;8.674;2023-04-03T05:51:02;94591.00;;;0.00
10598;BMP180;5346;48.766;8.674;2023-04-03T05:53:33;94596.00;;;0.10
10598;BMP180;5346;48.766;8.674;2023-04-03T05:56:09;94591.00;;;0.20
10598;BMP180;5346;48.766;8.674;2023-04-03T05:58:37;94598.00;;;0.20
10598;BMP180;5346;48.766;8.674;2023-04-03T06:01:11;94598.00;;;0.30
10598;BMP180;5346;48.766;8.674;2023-04-03T06:03:40;94598.00;;;0.30
10598;BMP180;5346;48.766;8.674;2023-04-03T06:06:15;94601.00;;;0.30
10598;BMP180;5346;48.766;8.674;2023-04-03T06:08:49;94603.00;;;0.40
10598;BMP180;5346;48.766;8.674;2023-04-03T06:11:24;94603.00;;;0.50
10598;BMP180;5346;48.766;8.674;2023-04-03T06:13:59;94605.00;;;0.40
10598;BMP180;5346;48.766;8.674;2023-04-03T06:16:34;94609.00;;;0.50
10598;BMP180;5346;48.766;8.674;2023-04-03T06:19:10;94603.00;;;0.50
10598;BMP180;5346;48.766;8.674;2023-04-03T06:21:44;94609.00;;;0.60
10598;BMP180;5346;48.766;8.674;2023-04-03T06:24:19;94604.00;;;0.70
10598;BMP180;5346;48.766;8.674;2023-04-03T06:26:55;94605.00;;;0.80
10598;BMP180;5346;48.766;8.674;2023-04-03T06:29:23;94607.00;;;0.90
10598;BMP180;5346;48.766;8.674;2023-04-03T06:31:57;94603.00;;;0.70
10598;BMP180;5346;48.766;8.674;2023-04-03T06:34:25;94612.00;;;1.20
10598;BMP180;5346;48.766;8.674;2023-04-03T06:36:59;94614.00;;;1.60
10598;BMP180;5346;48.766;8.674;2023-04-03T06:39:26;94619.00;;;1.40
10598;BMP180;5346;48.766;8.674;2023-04-03T06:42:01;94616.00;;;1.60
10598;BMP180;5346;48.766;8.674;2023-04-03T06:44:29;94613.00;;;2.10
10598;BMP180;5346;48.766;8.674;2023-04-03T06:47:03;94617.00;;;1.70
10598;BMP180;5346;48.766;8.674;2023-04-03T06:49:31;94625.00;;;1.30
10598;BMP180;5346;48.766;8.674;2023-04-03T06:52:05;94618.00;;;1.00
10598;BMP180;5346;48.766;8.674;2023-04-03T06:54:40;94622.00;;;1.00
10598;BMP180;5346;48.766;8.674;2023-04-03T06:57:14;94619.00;;;1.10
10598;BMP180;5346;48.766;8.674;2023-04-03T06:59:49;94624.00;;;1.20
10598;BMP180;5346;48.766;8.674;2023-04-03T07:02:25;94626.00;;;1.20
10598;BMP180;5346;48.766;8.674;2023-04-03T07:04:59;94626.00;;;1.40
10598;BMP180;5346;48.766;8.674;2023-04-03T07:07:34;94629.00;;;1.40
10598;BMP180;5346;48.766;8.674;2023-04-03T07:10:09;94637.00;;;1.50
10598;BMP180;5346;48.766;8.674;2023-04-03T07:12:44;94640.00;;;1.50
10598;BMP180;5346;48.766;8.674;2023-04-03T07:15:12;94634.00;;;1.90
10598;BMP180;5346;48.766;8.674;2023-04-03T07:17:48;94635.00;;;2.00
10598;BMP180;5346;48.766;8.674;2023-04-03T07:20:22;94638.00;;;1.90
10598;BMP180;5346;48.766;8.674;2023-04-03T07:22:50;94637.00;;;1.80
10598;BMP180;5346;48.766;8.674;2023-04-03T07:25:25;94640.00;;;1.90
10598;BMP180;5346;48.766;8.674;2023-04-03T07:27:59;94643.00;;;2.10
10598;BMP180;5346;48.766;8.674;2023-04-03T07:30:33;94632.00;;;2.50
10598;BMP180;5346;48.766;8.674;2023-04-03T07:33:09;94650.00;;;2.60
10598;BMP180;5346;48.766;8.674;2023-04-03T07:35:36;94637.00;;;2.90
10598;BMP180;5346;48.766;8.674;2023-04-03T07:38:12;94650.00;;;2.30
10598;BMP180;5346;48.766;8.674;2023-04-03T07:40:49;94652.00;;;2.10
10598;BMP180;5346;48.766;8.674;2023-04-03T07:43:23;94649.00;;;2.30
10598;BMP180;5346;48.766;8.674;2023-04-03T07:45:52;94653.00;;;2.70
10598;BMP180;5346;48.766;8.674;2023-04-03T07:48:27;94649.00;;;2.60
10598;BMP180;5346;48.766;8.674;2023-04-03T07:50:59;94658.00;;;2.60
10598;BMP180;5346;48.766;8.674;2023-04-03T07:53:34;94654.00;;;2.90
10598;BMP180;5346;48.766;8.674;2023-04-03T07:56:02;94658.00;;;3.00
10598;BMP180;5346;48.766;8.674;2023-04-03T07:58:36;94656.00;;;2.80
10598;BMP180;5346;48.766;8.674;2023-04-03T08:01:04;94658.00;;;3.10
10598;BMP180;5346;48.766;8.674;2023-04-03T08:03:39;94662.00;;;3.60
10598;BMP180;5346;48.766;8.674;2023-04-03T08:06:20;94659.00;;;3.60
10598;BMP180;5346;48.766;8.674;2023-04-03T08:09:13;94670.00;;;2.90
10598;BMP180;5346;48.766;8.674;2023-04-03T08:11:48;94657.00;;;3.20
10598;BMP180;5346;48.766;8.674;2023-04-03T08:14:22;94664.00;;;3.60
10598;BMP180;5346;48.766;8.674;2023-04-03T08:16:49;94670.00;;;3.60
10598;BMP180;5346;48.766;8.674;2023-04-03T08:19:23;94670.00;;;3.30
10598;BMP180;5346;48.766;8.674;2023-04-03T08:21:57;94680.00;;;3.30
10598;BMP180;5346;48.766;8.674;2023-04-03T08:24:33;94675.00;;;3.00
10598;BMP180;5346;48.766;8.674;2023-04-03T08:27:02;94680.00;;;3.00
10598;BMP180;5346;48.766;8.674;2023-04-03T08:29:36;94673.00;;;3.10
10598;BMP180;5346;48.766;8.674;2023-04-03T08:32:11;94674.00;;;3.00
10598;BMP180;5346;48.766;8.674;2023-04-03T08:34:46;94671.00;;;3.20
10598;BMP180;5346;48.766;8.674;2023-04-03T08:37:14;94664.00;;;3.40
10598;BMP180;5346;48.766;8.674;2023-04-03T08:39:51;94676.00;;;2.90
10598;BMP180;5346;48.766;8.674;2023-04-03T08:42:42;94685.00;;;3.50
10598;BMP180;5346;48.766;8.674;2023-04-03T08:48:35;94676.00;;;3.40
10598;BMP180;5346;48.766;8.674;2023-04-03T08:51:14;94674.00;;;3.70
10598;BMP180;5346;48.766;8.674;2023-04-03T08:54:03;94670.00;;;3.90
10598;BMP180;5346;48.766;8.674;2023-04-03T08:56:39;94690.00;;;3.70
10598;BMP180;5346;48.766;8.674;2023-04-03T08:59:28;94679.00;;;3.80
10598;BMP180;5346;48.766;8.674;2023-04-03T09:01:59;94684.00;;;3.50
10598;BMP180;5346;48.766;8.674;2023-04-03T09:04:36;94688.00;;;3.40
10598;BMP180;5346;48.766;8.674;2023-04-03T09:07:26;94685.00;;;3.60
10598;BMP180;5346;48.766;8.674;2023-04-03T09:10:19;94682.00;;;4.30
10598;BMP180;5346;48.766;8.674;2023-04-03T09:15:40;94688.00;;;4.50
10598;BMP180;5346;48.766;8.674;2023-04-03T09:18:20;94685.00;;;4.80
10598;BMP180;5346;48.766;8.674;2023-04-03T09:21:28;94691.00;;;4.90
10598;BMP180;5346;48.766;8.674;2023-04-03T09:24:00;94694.00;;;4.50
10598;BMP180;5346;48.766;8.674;2023-04-03T09:27:05;94690.00;;;5.00
10598;BMP180;5346;48.766;8.674;2023-04-03T09:29:40;94684.00;;;4.70
10598;BMP180;5346;48.766;8.674;2023-04-03T09:34:48;94669.00;;;5.30
10598;BMP180;5346;48.766;8.674;2023-04-03T09:38:35;94685.00;;;5.00
10598;BMP180;5346;48.766;8.674;2023-04-03T09:40:36;94689.00;;;5.00
10598;BMP180;5346;48.766;8.674;2023-04-03T09:43:23;94698.00;;;4.90
10598;BMP180;5346;48.766;8.674;2023-04-03T09:46:20;94698.00;;;4.20
10598;BMP180;5346;48.766;8.674;2023-04-03T09:48:57;94694.00;;;4.20
10598;BMP180;5346;48.766;8.674;2023-04-03T09:51:36;94698.00;;;3.80
10598;BMP180;5346;48.766;8.674;2023-04-03T09:54:38;94695.00;;;4.20
10598;BMP180;5346;48.766;8.674;2023-04-03T09:57:14;94696.00;;;4.40
10598;BMP180;5346;48.766;8.674;2023-04-03T09:59:57;94701.00;;;4.20
10598;BMP180;5346;48.766;8.674;2023-04-03T10:02:38;94683.00;;;4.90
10598;BMP180;5346;48.766;8.674;2023-04-03T10:05:35;94693.00;;;4.50
10598;BMP180;5346;48.766;8.674;2023-04-03T10:10:46;94691.00;;;5.40
10598;BMP180;5346;48.766;8.674;2023-04-03T10:13:21;94689.00;;;5.40
10598;BMP180;5346;48.766;8.674;2023-04-03T10:16:12;94692.00;;;5.00
10598;BMP180;5346;48.766;8.674;2023-04-03T10:27:40;94672.00;;;4.10
10598;BMP180;5346;48.766;8.674;2023-04-03T10:30:21;94684.00;;;3.90
10598;BMP180;5346;48.766;8.674;2023-04-03T10:47:32;94684.00;;;4.30
10598;BMP180;5346;48.766;8.674;2023-04-03T10:56:30;94691.00;;;3.60
10598;BMP180;5346;48.766;8.674;2023-04-03T10:59:35;94691.00;;;3.00
10598;BMP180;5346;48.766;8.674;2023-04-03T11:04:56;94683.00;;;3.30
10598;BMP180;5346;48.766;8.674;2023-04-03T11:07:43;94688.00;;;3.60
10598;BMP180;5346;48.766;8.674;2023-04-03T11:10:35;94691.00;;;3.60
10598;BMP180;5346;48.766;8.674;2023-04-03T11:13:13;94695.00;;;3.30
10598;BMP180;5346;48.766;8.674;2023-04-03T11:15:47;94682.00;;;3.30
10598;BMP180;5346;48.766;8.674;2023-04-03T11:18:32;94680.00;;;3.80
10598;BMP180;5346;48.766;8.674;2023-04-03T11:23:59;94672.00;;;5.00
10598;BMP180;5346;48.766;8.674;2023-04-03T11:26:40;94667.00;;;5.00
10598;BMP180;5346;48.766;8.674;2023-04-03T11:29:14;94681.00;;;4.50
10598;BMP180;5346;48.766;8.674;2023-04-03T11:34:44;94676.00;;;3.50
10598;BMP180;5346;48.766;8.674;2023-04-03T11:37:38;94677.00;;;3.50
10598;BMP180;5346;48.766;8.674;2023-04-03T11:45:55;94673.00;;;4.00
10598;BMP180;5346;48.766;8.674;2023-04-03T11:53:54;94679.00;;;4.30
10598;BMP180;5346;48.766;8.674;2023-04-03T11:56:50;94680.00;;;4.00
10598;BMP180;5346;48.766;8.674;2023-04-03T11:59:22;94677.00;;;3.70
10598;BMP180;5346;48.766;8.674;2023-04-03T12:01:57;94678.00;;;3.30
10598;BMP180;5346;48.766;8.674;2023-04-03T12:04:27;94668.00;;;3.10
10598;BMP180;5346;48.766;8.674;2023-04-03T12:07:18;94665.00;;;3.20
10598;BMP180;5346;48.766;8.674;2023-04-03T12:09:57;94668.00;;;3.30
10598;BMP180;5346;48.766;8.674;2023-04-03T12:12:38;94660.00;;;3.10
10598;BMP180;5346;48.766;8.674;2023-04-03T12:15:20;94664.00;;;3.10
10598;BMP180;5346;48.766;8.674;2023-04-03T12:17:49;94658.00;;;3.10
10598;BMP180;5346;48.766;8.674;2023-04-03T12:23:34;94652.00;;;3.10
10598;BMP180;5346;48.766;8.674;2023-04-03T12:26:26;94651.00;;;3.80
10598;BMP180;5346;48.766;8.674;2023-04-03T12:29:23;94652.00;;;4.00
10598;BMP180;5346;48.766;8.674;2023-04-03T12:41:15;94657.00;;;3.40
10598;BMP180;5346;48.766;8.674;2023-04-03T12:46:45;94660.00;;;3.80
10598;BMP180;5346;48.766;8.674;2023-04-03T12:49:41;94648.00;;;3.50
10598;BMP180;5346;48.766;8.674;2023-04-03T12:52:37;94645.00;;;3.80
10598;BMP180;5346;48.766;8.674;2023-04-03T12:55:20;94642.00;;;4.10
10598;BMP180;5346;48.766;8.674;2023-04-03T12:57:48;94640.00;;;4.10
10598;BMP180;5346;48.766;8.674;2023-04-03T13:02:53;94654.00;;;3.70
10598;BMP180;5346;48.766;8.674;2023-04-03T13:05:28;94644.00;;;3.60
10598;BMP180;5346;48.766;8.674;2023-04-03T13:08:14;94643.00;;;3.60
10598;BMP180;5346;48.766;8.674;2023-04-03T13:11:17;94640.00;;;3.50
10598;BMP180;5346;48.766;8.674;2023-04-03T13:14:04;94642.00;;;3.60
10598;BMP180;5346;48.766;8.674;2023-04-03T13:16:39;94634.00;;;4.40
10598;BMP180;5346;48.766;8.674;2023-04-03T13:19:18;94624.00;;;4.60
10598;BMP180;5346;48.766;8.674;2023-04-03T13:22:06;94627.00;;;4.60
10598;BMP180;5346;48.766;8.674;2023-04-03T13:24:37;94623.00;;;4.70
10598;BMP180;5346;48.766;8.674;2023-04-03T13:27:13;94636.00;;;5.00
10598;BMP180;5346;48.766;8.674;2023-04-03T13:29:42;94632.00;;;5.30
10598;BMP180;5346;48.766;8.674;2023-04-03T13:32:22;94629.00;;;5.50
10598;BMP180;5346;48.766;8.674;2023-04-03T13:34:58;94625.00;;;5.70
10598;BMP180;5346;48.766;8.674;2023-04-03T13:37:56;94625.00;;;5.60
10598;BMP180;5346;48.766;8.674;2023-04-03T13:40:27;94617.00;;;5.50
10598;BMP180;5346;48.766;8.674;2023-04-03T13:43:25;94619.00;;;5.90
10598;BMP180;5346;48.766;8.674;2023-04-03T13:46:00;94624.00;;;5.50
10598;BMP180;5346;48.766;8.674;2023-04-03T13:48:49;94622.00;;;5.40
10598;BMP180;5346;48.766;8.674;2023-04-03T13:52:00;94629.00;;;5.50
10598;BMP180;5346;48.766;8.674;2023-04-03T13:54:38;94633.00;;;5.60
10598;BMP180;5346;48.766;8.674;2023-04-03T13:57:18;94631.00;;;5.50
10598;BMP180;5346;48.766;8.674;2023-04-03T13:59:52;94629.00;;;5.40
10598;BMP180;5346;48.766;8.674;2023-04-03T14:02:32;94628.00;;;5.70
10598;BMP180;5346;48.766;8.674;2023-04-03T14:05:02;94632.00;;;5.80
10598;BMP180;5346;48.766;8.674;2023-04-03T14:07:49;94633.00;;;5.10
10598;BMP180;5346;48.766;8.674;2023-04-03T14:10:18;94647.00;;;4.50
10598;BMP180;5346;48.766;8.674;2023-04-03T14:12:52;94648.00;;;4.20
10598;BMP180;5346;48.766;8.674;2023-04-03T14:15:27;94634.00;;;4.10
10598;BMP180;5346;48.766;8.674;2023-04-03T14:18:05;94635.00;;;4.00
10598;BMP180;5346;48.766;8.674;2023-04-03T14:20:34;94630.00;;;3.90
10598;BMP180;5346;48.766;8.674;2023-04-03T14:23:08;94632.00;;;3.90
10598;BMP180;5346;48.766;8.674;2023-04-03T14:25:42;94627.00;;;3.90
10598;BMP180;5346;48.766;8.674;2023-04-03T14:28:19;94621.00;;;4.00
10598;BMP180;5346;48.766;8.674;2023-04-03T14:30:54;94627.00;;;4.00
10598;BMP180;5346;48.766;8.674;2023-04-03T14:33:28;94627.00;;;4.20
10598;BMP180;5346;48.766;8.674;2023-04-03T14:36:23;94623.00;;;4.50
10598;BMP180;5346;48.766;8.674;2023-04-03T14:39:01;94621.00;;;4.40
10598;BMP180;5346;48.766;8.674;2023-04-03T14:41:37;94622.00;;;4.10
10598;BMP180;5346;48.766;8.674;2023-04-03T14:44:04;94621.00;;;4.10
10598;BMP180;5346;48.766;8.674;2023-04-03T14:46:35;94628.00;;;4.00
10598;BMP180;5346;48.766;8.674;2023-04-03T14:49:19;94623.00;;;4.00
10598;BMP180;5346;48.766;8.674;2023-04-03T14:51:50;94622.00;;;4.00
10598;BMP180;5346;48.766;8.674;2023-04-03T14:54:24;94621.00;;;4.00
10598;BMP180;5346;48.766;8.674;2023-04-03T14:57:01;94618.00;;;4.00
10598;BMP180;5346;48.766;8.674;2023-04-03T14:59:31;94607.00;;;4.10
10598;BMP180;5346;48.766;8.674;2023-04-03T15:02:34;94612.00;;;4.10
10598;BMP180;5346;48.766;8.674;2023-04-03T15:05:04;94612.00;;;4.30
10598;BMP180;5346;48.766;8.674;2023-04-03T15:07:56;94613.00;;;4.20
10598;BMP180;5346;48.766;8.674;2023-04-03T15:10:27;94619.00;;;4.20
10598;BMP180;5346;48.766;8.674;2023-04-03T15:13:01;94612.00;;;4.20
10598;BMP180;5346;48.766;8.674;2023-04-03T15:15:29;94608.00;;;3.90
10598;BMP180;5346;48.766;8.674;2023-04-03T15:18:06;94610.00;;;3.80
10598;BMP180;5346;48.766;8.674;2023-04-03T15:20:34;94603.00;;;3.70
10598;BMP180;5346;48.766;8.674;2023-04-03T15:23:11;94606.00;;;3.60
10598;BMP180;5346;48.766;8.674;2023-04-03T15:25:42;94608.00;;;3.90
10598;BMP180;5346;48.766;8.674;2023-04-03T15:28:26;94607.00;;;3.70
10598;BMP180;5346;48.766;8.674;2023-04-03T15:31:02;94604.00;;;3.90
10598;BMP180;5346;48.766;8.674;2023-04-03T15:33:37;94604.00;;;4.10
10598;BMP180;5346;48.766;8.674;2023-04-03T15:36:11;94594.00;;;4.20
10598;BMP180;5346;48.766;8.674;2023-04-03T15:39:00;94595.00;;;4.50
10598;BMP180;5346;48.766;8.674;2023-04-03T15:41:35;94602.00;;;4.60
10598;BMP180;5346;48.766;8.674;2023-04-03T15:44:02;94602.00;;;4.20
10598;BMP180;5346;48.766;8.674;2023-04-03T15:46:36;94606.00;;;4.20
10598;BMP180;5346;48.766;8.674;2023-04-03T15:49:05;94606.00;;;4.30
10598;BMP180;5346;48.766;8.674;2023-04-03T15:51:41;94607.00;;;4.00
10598;BMP180;5346;48.766;8.674;2023-04-03T15:54:08;94607.00;;;3.90
10598;BMP180;5346;48.766;8.674;2023-04-03T15:56:42;94602.00;;;3.70
10598;BMP180;5346;48.766;8.674;2023-04-03T15:59:16;94609.00;;;3.90
10598;BMP180;5346;48.766;8.674;2023-04-03T16:01:45;94608.00;;;3.70
10598;BMP180;5346;48.766;8.674;2023-04-03T16:04:19;94609.00;;;3.60
10598;BMP180;5346;48.766;8.674;2023-04-03T16:06:54;94610.00;;;3.60
10598;BMP180;5346;48.766;8.674;2023-04-03T16:09:37;94611.00;;;3.50
10598;BMP180;5346;48.766;8.674;2023-04-03T16:12:11;94607.00;;;3.40
10598;BMP180;5346;48.766;8.674;2023-04-03T16:14:45;94602.00;;;3.70
10598;BMP180;5346;48.766;8.674;2023-04-03T16:17:13;94599.00;;;3.70
10598;BMP180;5346;48.766;8.674;2023-04-03T16:19:47;94608.00;;;3.80
10598;BMP180;5346;48.766;8.674;2023-04-03T16:22:15;94606.00;;;3.70
10598;BMP180;5346;48.766;8.674;2023-04-03T16:24:50;94612.00;;;3.50
10598;BMP180;5346;48.766;8.674;2023-04-03T16:27:25;94607.00;;;3.50
10598;BMP180;5346;48.766;8.674;2023-04-03T16:30:02;94614.00;;;3.50
10598;BMP180;5346;48.766;8.674;2023-04-03T16:32:30;94611.00;;;3.50
10598;BMP180;5346;48.766;8.674;2023-04-03T16:35:05;94617.00;;;3.50
10598;BMP180;5346;48.766;8.674;2023-04-03T16:37:39;94611.00;;;3.50
10598;BMP180;5346;48.766;8.674;2023-04-03T16:40:13;94615.00;;;3.50
10598;BMP180;5346;48.766;8.674;2023-04-03T16:42:50;94607.00;;;3.10
10598;BMP180;5346;48.766;8.674;2023-04-03T16:45:18;94618.00;;;2.90